sensor_id;sensor_type;location;lat;lon;timestamp;P1;durP1;ratioP1;P2;durP2;ratioP2
8171;SDS011;4127;47.908;10.850;2023-05-20T11:55:54;7.73;;;7.03;;
8171;SDS011;4127;47.908;10.850;2023-05-20T11:58:26;7.20;;;6.50;;
8171;SDS011;4127;47.908;10.850;2023-05-20T12:00:55;7.60;;;6.90;;
8171;SDS011;4127;47.908;10.850;2023-05-20T12:03:42;9.07;;;7.30;;
8171;SDS011;4127;47.908;10.850;2023-05-20T12:06:10;7.60;;;7.00;;
8171;SDS011;4127;47.908;10.850;2023-05-20T12:08:38;7.07;;;6.47;;
8171;SDS011;4127;47.908;10.850;2023-05-20T12:11:05;7.47;;;6.77;;
8171;SDS011;4127;47.908;10.850;2023-05-20T12:13:32;8.13;;;7.43;;
8171;SDS011;4127;47.908;10.850;2023-05-20T12:16:00;6.87;;;6.37;;
8171;SDS011;4127;47.908;10.850;2023-05-20T12:18:27;5.90;;;5.40;;
8171;SDS011;4127;47.908;10.850;2023-05-20T12:20:54;5.90;;;5.33;;
8171;SDS011;4127;47.908;10.850;2023-05-20T12:23:21;6.43;;;5.93;;
8171;SDS011;4127;47.908;10.850;2023-05-20T12:25:48;5.70;;;5.20;;
8171;SDS011;4127;47.908;10.850;2023-05-20T12:28:15;5.57;;;4.97;;
8171;SDS011;4127;47.908;10.850;2023-05-20T12:30:43;5.50;;;5.00;;
8171;SDS011;4127;47.908;10.850;2023-05-20T12:33:09;5.20;;;4.70;;
8171;SDS011;4127;47.908;10.850;2023-05-20T12:35:37;5.80;;;5.30;;
8171;SDS011;4127;47.908;10.850;2023-05-20T12:38:06;4.60;;;4.20;;
8171;SDS011;4127;47.908;10.850;2023-05-20T12:40:33;4.60;;;4.20;;
8171;SDS011;4127;47.908;10.850;2023-05-20T12:43:01;4.50;;;4.20;;
8171;SDS011;4127;47.908;10.850;2023-05-20T12:45:29;4.40;;;4.00;;
8171;SDS011;4127;47.908;10.850;2023-05-20T12:47:56;4.10;;;3.80;;
8171;SDS011;4127;47.908;10.850;2023-05-20T12:50:23;4.00;;;3.60;;
8171;SDS011;4127;47.908;10.850;2023-05-20T12:52:51;6.23;;;4.93;;
8171;SDS011;4127;47.908;10.850;2023-05-20T12:55:18;6.90;;;5.70;;
8171;SDS011;4127;47.908;10.850;2023-05-20T12:57:45;11.13;;;7.50;;
8171;SDS011;4127;47.908;10.850;2023-05-20T13:00:12;9.85;;;6.13;;
8171;SDS011;4127;47.908;10.850;2023-05-20T13:02:40;4.10;;;3.35;;
8171;SDS011;4127;47.908;10.850;2023-05-20T13:05:08;3.80;;;3.50;;
8171;SDS011;4127;47.908;10.850;2023-05-20T13:07:35;3.20;;;3.00;;
8171;SDS011;4127;47.908;10.850;2023-05-20T13:10:02;3.03;;;2.83;;
8171;SDS011;4127;47.908;10.850;2023-05-20T13:12:30;2.85;;;2.65;;
8171;SDS011;4127;47.908;10.850;2023-05-20T13:14:57;3.33;;;3.13;;
8171;SDS011;4127;47.908;10.850;2023-05-20T13:17:24;3.87;;;3.30;;
8171;SDS011;4127;47.908;10.850;2023-05-20T13:19:51;2.58;;;2.38;;
8171;SDS011;4127;47.908;10.850;2023-05-20T13:22:18;2.70;;;2.50;;
8171;SDS011;4127;47.908;10.850;2023-05-20T13:24:45;3.58;;;2.63;;
8171;SDS011;4127;47.908;10.850;2023-05-20T13:27:12;2.83;;;2.58;;
8171;SDS011;4127;47.908;10.850;2023-05-20T13:29:39;3.17;;;2.60;;
8171;SDS011;4127;47.908;10.850;2023-05-20T13:32:07;2.60;;;2.40;;
8171;SDS011;4127;47.908;10.850;2023-05-20T13:34:33;2.88;;;2.58;;
8171;SDS011;4127;47.908;10.850;2023-05-20T13:37:00;2.97;;;2.67;;
8171;SDS011;4127;47.908;10.850;2023-05-20T13:39:27;2.75;;;2.55;;
8171;SDS011;4127;47.908;10.850;2023-05-20T13:41:54;2.50;;;2.30;;
8171;SDS011;4127;47.908;10.850;2023-05-20T13:44:21;2.77;;;2.57;;
8171;SDS011;4127;47.908;10.850;2023-05-20T13:46:48;2.92;;;2.72;;
8171;SDS011;4127;47.908;10.850;2023-05-20T13:49:15;2.80;;;2.60;;
8171;SDS011;4127;47.908;10.850;2023-05-20T13:51:42;2.90;;;2.70;;
8171;SDS011;4127;47.908;10.850;2023-05-20T13:54:09;3.03;;;2.80;;
8171;SDS011;4127;47.908;10.850;2023-05-20T13:56:36;3.20;;;2.90;;
8171;SDS011;4127;47.908;10.850;2023-05-20T13:59:03;3.20;;;2.90;;
8171;SDS011;4127;47.908;10.850;2023-05-20T14:01:30;3.22;;;2.72;;
8171;SDS011;4127;47.908;10.850;2023-05-20T14:03:59;2.60;;;2.40;;
8171;SDS011;4127;47.908;10.850;2023-05-20T14:06:26;2.80;;;2.60;;
8171;SDS011;4127;47.908;10.850;2023-05-20T14:08:54;2.65;;;2.45;;
8171;SDS011;4127;47.908;10.850;2023-05-20T14:11:22;3.03;;;2.83;;
8171;SDS011;4127;47.908;10.850;2023-05-20T14:13:48;2.70;;;2.50;;
8171;SDS011;4127;47.908;10.850;2023-05-20T14:16:15;2.53;;;2.33;;
8171;SDS011;4127;47.908;10.850;2023-05-20T14:18:43;2.70;;;2.50;;
8171;SDS011;4127;47.908;10.850;2023-05-20T14:21:10;2.97;;;2.70;;
8171;SDS011;4127;47.908;10.850;2023-05-20T14:23:38;3.35;;;2.67;;
8171;SDS011;4127;47.908;10.850;2023-05-20T14:26:06;3.25;;;2.53;;
8171;SDS011;4127;47.908;10.850;2023-05-20T14:28:33;3.08;;;2.88;;
8171;SDS011;4127;47.908;10.850;2023-05-20T14:31:00;2.80;;;2.60;;
8171;SDS011;4127;47.908;10.850;2023-05-20T14:33:26;2.85;;;2.65;;
8171;SDS011;4127;47.908;10.850;2023-05-20T14:35:53;2.90;;;2.70;;
8171;SDS011;4127;47.908;10.850;2023-05-20T14:38:20;2.65;;;2.45;;
8171;SDS011;4127;47.908;10.850;2023-05-20T14:40:47;4.05;;;2.88;;
8171;SDS011;4127;47.908;10.850;2023-05-20T14:43:14;3.03;;;2.83;;
8171;SDS011;4127;47.908;10.850;2023-05-20T14:45:41;3.30;;;3.00;;
8171;SDS011;4127;47.908;10.850;2023-05-20T14:48:09;4.97;;;3.03;;
8171;SDS011;4127;47.908;10.850;2023-05-20T14:50:36;3.40;;;3.10;;
8171;SDS011;4127;47.908;10.850;2023-05-20T14:53:04;3.17;;;2.97;;
8171;SDS011;4127;47.908;10.850;2023-05-20T14:55:31;3.75;;;3.10;;
8171;SDS011;4127;47.908;10.850;2023-05-20T14:57:58;3.17;;;2.92;;
8171;SDS011;4127;47.908;10.850;2023-05-20T15:00:25;3.97;;;3.53;;
8171;SDS011;4127;47.908;10.850;2023-05-20T15:02:52;3.90;;;3.42;;
8171;SDS011;4127;47.908;10.850;2023-05-20T15:05:19;4.03;;;3.60;;
8171;SDS011;4127;47.908;10.850;2023-05-20T15:07:46;4.72;;;3.65;;
8171;SDS011;4127;47.908;10.850;2023-05-20T15:10:13;3.65;;;3.35;;
8171;SDS011;4127;47.908;10.850;2023-05-20T15:12:39;4.28;;;3.88;;
8171;SDS011;4127;47.908;10.850;2023-05-20T15:15:07;4.95;;;3.85;;
8171;SDS011;4127;47.908;10.850;2023-05-20T15:17:35;4.80;;;4.40;;
8171;SDS011;4127;47.908;10.850;2023-05-20T15:20:02;5.70;;;4.40;;
8171;SDS011;4127;47.908;10.850;2023-05-20T15:22:29;4.97;;;4.43;;
8171;SDS011;4127;47.908;10.850;2023-05-20T15:24:56;4.82;;;4.25;;
8171;SDS011;4127;47.908;10.850;2023-05-20T15:27:23;5.60;;;4.35;;
8171;SDS011;4127;47.908;10.850;2023-05-20T15:29:49;5.15;;;4.75;;
8171;SDS011;4127;47.908;10.850;2023-05-20T15:32:16;4.38;;;4.03;;
8171;SDS011;4127;47.908;10.850;2023-05-20T15:34:45;5.00;;;4.50;;
8171;SDS011;4127;47.908;10.850;2023-05-20T15:37:12;4.57;;;4.17;;
8171;SDS011;4127;47.908;10.850;2023-05-20T15:39:38;4.60;;;4.20;;
8171;SDS011;4127;47.908;10.850;2023-05-20T15:42:05;5.77;;;4.70;;
8171;SDS011;4127;47.908;10.850;2023-05-20T15:44:32;4.83;;;4.37;;
8171;SDS011;4127;47.908;10.850;2023-05-20T15:47:01;5.33;;;4.87;;
8171;SDS011;4127;47.908;10.850;2023-05-20T15:49:28;5.20;;;4.70;;
8171;SDS011;4127;47.908;10.850;2023-05-20T15:51:54;5.27;;;4.83;;
8171;SDS011;4127;47.908;10.850;2023-05-20T15:54:29;5.10;;;4.60;;
8171;SDS011;4127;47.908;10.850;2023-05-20T15:56:56;6.43;;;4.97;;
8171;SDS011;4127;47.908;10.850;2023-05-20T15:59:23;5.90;;;5.30;;
8171;SDS011;4127;47.908;10.850;2023-05-20T16:01:51;6.70;;;5.27;;
8171;SDS011;4127;47.908;10.850;2023-05-20T16:04:18;5.53;;;5.03;;
8171;SDS011;4127;47.908;10.850;2023-05-20T16:06:45;7.00;;;5.13;;
8171;SDS011;4127;47.908;10.850;2023-05-20T16:09:12;5.67;;;4.93;;
8171;SDS011;4127;47.908;10.850;2023-05-20T16:11:39;5.60;;;5.10;;
8171;SDS011;4127;47.908;10.850;2023-05-20T16:14:06;6.13;;;5.43;;
8171;SDS011;4127;47.908;10.850;2023-05-20T16:16:33;6.07;;;5.57;;
8171;SDS011;4127;47.908;10.850;2023-05-20T16:19:01;6.63;;;5.33;;
8171;SDS011;4127;47.908;10.850;2023-05-20T16:21:28;6.33;;;5.77;;
8171;SDS011;4127;47.908;10.850;2023-05-20T16:23:56;6.83;;;6.20;;
8171;SDS011;4127;47.908;10.850;2023-05-20T16:26:23;7.27;;;6.57;;
8171;SDS011;4127;47.908;10.850;2023-05-20T16:28:50;6.70;;;6.17;;
8171;SDS011;4127;47.908;10.850;2023-05-20T16:31:16;5.53;;;5.03;;
8171;SDS011;4127;47.908;10.850;2023-05-20T16:33:44;6.17;;;5.57;;
8171;SDS011;4127;47.908;10.850;2023-05-20T16:36:10;6.30;;;5.70;;
8171;SDS011;4127;47.908;10.850;2023-05-20T16:38:37;6.70;;;6.10;;
8171;SDS011;4127;47.908;10.850;2023-05-20T16:41:04;6.53;;;5.93;;
8171;SDS011;4127;47.908;10.850;2023-05-20T16:43:31;6.70;;;6.10;;
8171;SDS011;4127;47.908;10.850;2023-05-20T16:45:58;6.23;;;5.63;;
8171;SDS011;4127;47.908;10.850;2023-05-20T16:48:25;7.93;;;6.33;;
8171;SDS011;4127;47.908;10.850;2023-05-20T16:50:52;6.40;;;5.60;;
8171;SDS011;4127;47.908;10.850;2023-05-20T16:53:19;8.80;;;6.60;;
8171;SDS011;4127;47.908;10.850;2023-05-20T16:55:46;7.90;;;6.10;;
8171;SDS011;4127;47.908;10.850;2023-05-20T16:58:13;6.43;;;5.70;;
8171;SDS011;4127;47.908;10.850;2023-05-20T17:00:40;6.80;;;6.10;;
8171;SDS011;4127;47.908;10.850;2023-05-20T17:03:07;6.80;;;6.10;;
8171;SDS011;4127;47.908;10.850;2023-05-20T17:05:34;6.40;;;5.80;;
8171;SDS011;4127;47.908;10.850;2023-05-20T17:08:01;6.47;;;5.97;;
8171;SDS011;4127;47.908;10.850;2023-05-20T17:10:28;6.97;;;6.27;;
8171;SDS011;4127;47.908;10.850;2023-05-20T17:12:54;6.47;;;5.97;;
8171;SDS011;4127;47.908;10.850;2023-05-20T17:15:21;6.53;;;5.93;;
8171;SDS011;4127;47.908;10.850;2023-05-20T17:17:49;6.97;;;6.37;;
8171;SDS011;4127;47.908;10.850;2023-05-20T17:20:16;10.87;;;6.97;;
8171;SDS011;4127;47.908;10.850;2023-05-20T17:22:43;7.00;;;6.30;;
8171;SDS011;4127;47.908;10.850;2023-05-20T17:25:10;6.77;;;5.47;;
8171;SDS011;4127;47.908;10.850;2023-05-20T17:27:37;7.40;;;6.70;;
8171;SDS011;4127;47.908;10.850;2023-05-20T17:30:04;8.73;;;7.67;;
8171;SDS011;4127;47.908;10.850;2023-05-20T17:32:31;7.47;;;6.77;;
8171;SDS011;4127;47.908;10.850;2023-05-20T17:34:58;7.83;;;6.87;;
8171;SDS011;4127;47.908;10.850;2023-05-20T17:37:25;6.80;;;6.20;;
8171;SDS011;4127;47.908;10.850;2023-05-20T17:39:52;7.40;;;6.70;;
8171;SDS011;4127;47.908;10.850;2023-05-20T17:42:20;8.57;;;6.93;;
8171;SDS011;4127;47.908;10.850;2023-05-20T17:44:47;6.70;;;6.10;;
8171;SDS011;4127;47.908;10.850;2023-05-20T17:47:14;7.47;;;6.20;;
8171;SDS011;4127;47.908;10.850;2023-05-20T17:49:40;7.93;;;6.50;;
8171;SDS011;4127;47.908;10.850;2023-05-20T17:52:07;8.37;;;7.67;;
8171;SDS011;4127;47.908;10.850;2023-05-20T17:54:34;7.73;;;7.03;;
8171;SDS011;4127;47.908;10.850;2023-05-20T17:57:01;7.10;;;6.50;;
8171;SDS011;4127;47.908;10.850;2023-05-20T17:59:28;7.27;;;6.37;;
8171;SDS011;4127;47.908;10.850;2023-05-20T18:01:55;6.97;;;6.37;;
8171;SDS011;4127;47.908;10.850;2023-05-20T18:04:22;7.43;;;6.73;;
8171;SDS011;4127;47.908;10.850;2023-05-20T18:06:48;6.87;;;6.37;;
8171;SDS011;4127;47.908;10.850;2023-05-20T18:09:16;6.80;;;6.20;;
8171;SDS011;4127;47.908;10.850;2023-05-20T18:11:42;7.10;;;6.50;;
8171;SDS011;4127;47.908;10.850;2023-05-20T18:14:09;7.40;;;6.70;;
8171;SDS011;4127;47.908;10.850;2023-05-20T18:16:36;7.57;;;6.87;;
8171;SDS011;4127;47.908;10.850;2023-05-20T18:19:03;6.87;;;6.33;;
8171;SDS011;4127;47.908;10.850;2023-05-20T18:21:30;7.67;;;6.93;;
8171;SDS011;4127;47.908;10.850;2023-05-20T18:23:57;7.80;;;7.00;;
8171;SDS011;4127;47.908;10.850;2023-05-20T18:26:24;7.97;;;7.30;;
8171;SDS011;4127;47.908;10.850;2023-05-20T18:28:51;7.40;;;6.57;;
8171;SDS011;4127;47.908;10.850;2023-05-20T18:31:18;7.10;;;6.40;;
8171;SDS011;4127;47.908;10.850;2023-05-20T18:33:45;7.63;;;6.43;;
8171;SDS011;4127;47.908;10.850;2023-05-20T18:36:12;6.43;;;5.93;;
8171;SDS011;4127;47.908;10.850;2023-05-20T18:38:38;6.90;;;6.30;;
8171;SDS011;4127;47.908;10.850;2023-05-20T18:41:07;6.97;;;6.47;;
8171;SDS011;4127;47.908;10.850;2023-05-20T18:43:34;7.10;;;6.47;;
8171;SDS011;4127;47.908;10.850;2023-05-20T18:46:01;6.63;;;6.10;;
8171;SDS011;4127;47.908;10.850;2023-05-20T18:48:28;6.87;;;6.23;;
8171;SDS011;4127;47.908;10.850;2023-05-20T18:50:55;7.13;;;6.43;;
8171;SDS011;4127;47.908;10.850;2023-05-20T18:53:23;7.03;;;6.43;;
8171;SDS011;4127;47.908;10.850;2023-05-20T18:55:50;7.00;;;6.50;;
8171;SDS011;4127;47.908;10.850;2023-05-20T18:58:17;6.73;;;6.13;;
8171;SDS011;4127;47.908;10.850;2023-05-20T19:00:44;7.00;;;6.40;;
8171;SDS011;4127;47.908;10.850;2023-05-20T19:03:11;6.77;;;6.20;;
8171;SDS011;4127;47.908;10.850;2023-05-20T19:05:37;6.97;;;6.37;;
8171;SDS011;4127;47.908;10.850;2023-05-20T19:08:05;6.87;;;6.37;;
8171;SDS011;4127;47.908;10.850;2023-05-20T19:10:31;12.33;;;10.17;;
8171;SDS011;4127;47.908;10.850;2023-05-20T19:12:58;11.83;;;10.70;;
8171;SDS011;4127;47.908;10.850;2023-05-20T19:15:25;13.43;;;12.13;;
8171;SDS011;4127;47.908;10.850;2023-05-20T19:17:52;10.53;;;9.53;;
8171;SDS011;4127;47.908;10.850;2023-05-20T19:20:19;9.63;;;8.73;;
8171;SDS011;4127;47.908;10.850;2023-05-20T19:22:46;8.43;;;7.73;;
8171;SDS011;4127;47.908;10.850;2023-05-20T19:25:13;9.40;;;8.60;;
8171;SDS011;4127;47.908;10.850;2023-05-20T19:27:40;10.17;;;9.17;;
8171;SDS011;4127;47.908;10.850;2023-05-20T19:30:06;9.90;;;8.90;;
8171;SDS011;4127;47.908;10.850;2023-05-20T19:32:36;9.50;;;8.60;;
8171;SDS011;4127;47.908;10.850;2023-05-20T19:35:04;11.27;;;10.17;;
8171;SDS011;4127;47.908;10.850;2023-05-20T19:37:31;11.73;;;10.63;;
8171;SDS011;4127;47.908;10.850;2023-05-20T19:39:58;11.00;;;10.03;;
8171;SDS011;4127;47.908;10.850;2023-05-20T19:42:26;9.20;;;8.33;;
8171;SDS011;4127;47.908;10.850;2023-05-20T19:44:52;8.20;;;7.50;;
8171;SDS011;4127;47.908;10.850;2023-05-20T19:47:20;7.67;;;7.07;;
8171;SDS011;4127;47.908;10.850;2023-05-20T19:49:47;7.90;;;7.13;;
8171;SDS011;4127;47.908;10.850;2023-05-20T19:52:14;8.83;;;6.97;;
8171;SDS011;4127;47.908;10.850;2023-05-20T19:54:41;7.63;;;6.93;;
8171;SDS011;4127;47.908;10.850;2023-05-20T19:57:08;7.90;;;7.30;;
8171;SDS011;4127;47.908;10.850;2023-05-20T19:59:35;8.93;;;8.13;;
8171;SDS011;4127;47.908;10.850;2023-05-20T20:02:03;11.13;;;9.27;;
8171;SDS011;4127;47.908;10.850;2023-05-20T20:04:31;8.40;;;7.70;;
8171;SDS011;4127;47.908;10.850;2023-05-20T20:06:58;9.80;;;8.90;;
8171;SDS011;4127;47.908;10.850;2023-05-20T20:09:25;11.10;;;10.13;;
8171;SDS011;4127;47.908;10.850;2023-05-20T20:11:52;8.97;;;8.27;;
8171;SDS011;4127;47.908;10.850;2023-05-20T20:14:19;8.93;;;8.17;;
8171;SDS011;4127;47.908;10.850;2023-05-20T20:16:46;8.97;;;8.17;;
8171;SDS011;4127;47.908;10.850;2023-05-20T20:19:15;9.03;;;8.33;;
8171;SDS011;4127;47.908;10.850;2023-05-20T20:21:44;9.60;;;8.60;;
8171;SDS011;4127;47.908;10.850;2023-05-20T20:24:11;9.77;;;8.97;;
8171;SDS011;4127;47.908;10.850;2023-05-20T20:26:38;8.90;;;8.00;;
8171;SDS011;4127;47.908;10.850;2023-05-20T20:29:06;9.70;;;8.70;;
8171;SDS011;4127;47.908;10.850;2023-05-20T20:31:33;9.37;;;8.60;;
8171;SDS011;4127;47.908;10.850;2023-05-20T20:34:00;9.00;;;8.20;;
8171;SDS011;4127;47.908;10.850;2023-05-20T20:36:26;8.60;;;7.83;;
8171;SDS011;4127;47.908;10.850;2023-05-20T20:38:57;8.57;;;7.87;;
8171;SDS011;4127;47.908;10.850;2023-05-20T20:41:24;8.33;;;7.63;;
8171;SDS011;4127;47.908;10.850;2023-05-20T20:43:51;8.87;;;8.07;;
8171;SDS011;4127;47.908;10.850;2023-05-20T20:46:18;8.30;;;7.60;;
8171;SDS011;4127;47.908;10.850;2023-05-20T20:48:45;9.33;;;8.43;;
8171;SDS011;4127;47.908;10.850;2023-05-20T20:51:15;8.73;;;8.03;;
8171;SDS011;4127;47.908;10.850;2023-05-20T20:53:42;8.20;;;7.50;;
8171;SDS011;4127;47.908;10.850;2023-05-20T20:56:11;8.27;;;7.57;;
8171;SDS011;4127;47.908;10.850;2023-05-20T20:58:38;8.43;;;7.70;;
8171;SDS011;4127;47.908;10.850;2023-05-20T21:01:05;8.33;;;7.63;;
8171;SDS011;4127;47.908;10.850;2023-05-20T21:03:32;8.20;;;7.40;;
8171;SDS011;4127;47.908;10.850;2023-05-20T21:05:59;9.00;;;8.30;;
8171;SDS011;4127;47.908;10.850;2023-05-20T21:08:27;9.17;;;8.37;;
8171;SDS011;4127;47.908;10.850;2023-05-20T21:10:55;9.10;;;8.30;;
8171;SDS011;4127;47.908;10.850;2023-05-20T21:13:24;8.93;;;8.13;;
8171;SDS011;4127;47.908;10.850;2023-05-20T21:15:52;8.87;;;7.97;;
8171;SDS011;4127;47.908;10.850;2023-05-20T21:18:19;7.20;;;6.60;;
8171;SDS011;4127;47.908;10.850;2023-05-20T21:20:48;8.00;;;7.30;;
8171;SDS011;4127;47.908;10.850;2023-05-20T21:23:16;8.97;;;8.17;;
8171;SDS011;4127;47.908;10.850;2023-05-20T21:25:43;9.80;;;9.00;;
8171;SDS011;4127;47.908;10.850;2023-05-20T21:28:10;10.90;;;9.90;;
8171;SDS011;4127;47.908;10.850;2023-05-20T21:30:37;9.27;;;8.43;;
8171;SDS011;4127;47.908;10.850;2023-05-20T21:33:04;8.27;;;7.57;;
8171;SDS011;4127;47.908;10.850;2023-05-20T21:35:31;8.43;;;7.73;;
8171;SDS011;4127;47.908;10.850;2023-05-20T21:37:58;8.63;;;7.93;;
8171;SDS011;4127;47.908;10.850;2023-05-20T21:40:25;8.17;;;7.47;;
8171;SDS011;4127;47.908;10.850;2023-05-20T21:42:52;8.90;;;8.00;;
8171;SDS011;4127;47.908;10.850;2023-05-20T21:45:19;8.07;;;7.30;;
8171;SDS011;4127;47.908;10.850;2023-05-20T21:47:45;8.03;;;7.43;;
8171;SDS011;4127;47.908;10.850;2023-05-20T21:50:12;8.77;;;8.00;;
8171;SDS011;4127;47.908;10.850;2023-05-20T21:52:39;8.70;;;7.90;;
8171;SDS011;4127;47.908;10.850;2023-05-20T21:55:07;8.33;;;7.50;;
8171;SDS011;4127;47.908;10.850;2023-05-20T21:57:35;8.13;;;7.53;;
8171;SDS011;4127;47.908;10.850;2023-05-20T22:00:05;9.37;;;8.57;;
8171;SDS011;4127;47.908;10.850;2023-05-20T22:02:35;9.10;;;8.30;;
8171;SDS011;4127;47.908;10.850;2023-05-20T22:05:03;8.87;;;7.97;;
8171;SDS011;4127;47.908;10.850;2023-05-20T22:07:30;9.63;;;7.87;;
8171;SDS011;4127;47.908;10.850;2023-05-20T22:09:58;8.73;;;7.93;;
8171;SDS011;4127;47.908;10.850;2023-05-20T22:12:25;8.40;;;7.60;;
8171;SDS011;4127;47.908;10.850;2023-05-20T22:14:52;8.00;;;7.30;;
8171;SDS011;4127;47.908;10.850;2023-05-20T22:17:19;8.80;;;8.10;;
8171;SDS011;4127;47.908;10.850;2023-05-20T22:19:46;8.23;;;7.53;;
8171;SDS011;4127;47.908;10.850;2023-05-20T22:22:13;8.30;;;7.50;;
8171;SDS011;4127;47.908;10.850;2023-05-20T22:24:40;8.73;;;8.00;;
8171;SDS011;4127;47.908;10.850;2023-05-20T22:27:07;8.67;;;7.93;;
8171;SDS011;4127;47.908;10.850;2023-05-20T22:29:34;8.60;;;7.83;;
8171;SDS011;4127;47.908;10.850;2023-05-20T22:32:01;7.43;;;6.83;;
8171;SDS011;4127;47.908;10.850;2023-05-20T22:34:28;9.27;;;8.33;;
8171;SDS011;4127;47.908;10.850;2023-05-20T22:36:55;9.13;;;8.30;;
8171;SDS011;4127;47.908;10.850;2023-05-20T22:39:23;8.50;;;7.70;;
8171;SDS011;4127;47.908;10.850;2023-05-20T22:41:49;8.57;;;7.77;;
8171;SDS011;4127;47.908;10.850;2023-05-20T22:44:16;8.93;;;8.13;;
8171;SDS011;4127;47.908;10.850;2023-05-20T22:46:43;8.67;;;7.97;;
8171;SDS011;4127;47.908;10.850;2023-05-20T22:49:10;9.33;;;8.30;;
8171;SDS011;4127;47.908;10.850;2023-05-20T22:51:38;8.13;;;7.43;;
8171;SDS011;4127;47.908;10.850;2023-05-20T22:54:04;9.27;;;8.43;;
8171;SDS011;4127;47.908;10.850;2023-05-20T22:56:32;8.33;;;7.53;;
8171;SDS011;4127;47.908;10.850;2023-05-20T22:58:59;9.53;;;8.60;;
8171;SDS011;4127;47.908;10.850;2023-05-20T23:01:26;8.93;;;8.13;;
8171;SDS011;4127;47.908;10.850;2023-05-20T23:03:53;8.80;;;8.00;;
8171;SDS011;4127;47.908;10.850;2023-05-20T23:06:20;8.40;;;7.70;;
8171;SDS011;4127;47.908;10.850;2023-05-20T23:08:47;8.33;;;7.57;;
8171;SDS011;4127;47.908;10.850;2023-05-20T23:11:14;8.17;;;7.50;;
8171;SDS011;4127;47.908;10.850;2023-05-20T23:13:41;8.30;;;7.67;;
8171;SDS011;4127;47.908;10.850;2023-05-20T23:16:08;8.27;;;7.57;;
8171;SDS011;4127;47.908;10.850;2023-05-20T23:18:35;7.30;;;6.60;;
8171;SDS011;4127;47.908;10.850;2023-05-20T23:21:02;8.70;;;7.80;;
8171;SDS011;4127;47.908;10.850;2023-05-20T23:23:29;8.30;;;7.60;;
8171;SDS011;4127;47.908;10.850;2023-05-20T23:25:57;7.87;;;7.07;;
8171;SDS011;4127;47.908;10.850;2023-05-20T23:28:24;8.20;;;7.43;;
8171;SDS011;4127;47.908;10.850;2023-05-20T23:30:51;8.37;;;7.67;;
8171;SDS011;4127;47.908;10.850;2023-05-20T23:33:18;9.10;;;8.10;;
8171;SDS011;4127;47.908;10.850;2023-05-20T23:35:50;8.90;;;8.00;;
8171;SDS011;4127;47.908;10.850;2023-05-20T23:38:17;9.70;;;8.73;;
8171;SDS011;4127;47.908;10.850;2023-05-20T23:40:44;9.53;;;8.63;;
8171;SDS011;4127;47.908;10.850;2023-05-20T23:43:11;8.07;;;7.27;;
8171;SDS011;4127;47.908;10.850;2023-05-20T23:45:37;9.03;;;8.23;;
8171;SDS011;4127;47.908;10.850;2023-05-20T23:48:04;9.57;;;8.77;;
8171;SDS011;4127;47.908;10.850;2023-05-20T23:50:34;8.50;;;7.80;;
8171;SDS011;4127;47.908;10.850;2023-05-20T23:53:01;8.93;;;8.13;;
8171;SDS011;4127;47.908;10.850;2023-05-20T23:55:28;8.87;;;8.10;;
8171;SDS011;4127;47.908;10.850;2023-05-20T23:57:56;9.97;;;9.07;;
